createdAt,value
2022-09-28T00:01:19.048Z,23.48
2022-09-28T00:03:48.078Z,17.67
2022-09-28T00:06:18.967Z,21.58
2022-09-28T00:08:46.565Z,18.30
2022-09-28T00:11:15.270Z,20.02
2022-09-28T00:13:43.911Z,17.83
2022-09-28T00:16:14.849Z,18.45
2022-09-28T00:18:42.473Z,19.00
2022-09-28T00:21:12.844Z,20.20
2022-09-28T00:23:59.099Z,29.40
2022-09-28T00:26:28.546Z,16.42
2022-09-28T00:28:59.547Z,18.17
2022-09-28T00:31:33.098Z,18.13
2022-09-28T00:34:02.634Z,21.07
2022-09-28T00:36:32.273Z,19.70
2022-09-28T00:39:03.404Z,18.52
2022-09-28T00:41:30.282Z,18.33
2022-09-28T00:44:25.925Z,18.08
2022-09-28T00:47:07.971Z,18.47
2022-09-28T00:49:56.755Z,30.60
2022-09-28T00:52:32.254Z,17.15
2022-09-28T00:55:04.335Z,16.50
2022-09-28T00:57:32.805Z,19.58
2022-09-28T01:00:03.736Z,25.93
2022-09-28T01:02:31.899Z,18.13
2022-09-28T01:04:59.889Z,22.23
2022-09-28T01:07:27.039Z,14.85
2022-09-28T01:09:56.215Z,15.75
2022-09-28T01:12:23.165Z,15.67
2022-09-28T01:14:51.402Z,17.88
2022-09-28T01:17:26.877Z,12.27
2022-09-28T01:20:32.020Z,14.77
2022-09-28T01:23:22.372Z,11.60
2022-09-28T01:26:38.228Z,15.33
2022-09-28T01:29:10.524Z,14.43
2022-09-28T01:31:41.812Z,14.45
2022-09-28T01:34:27.985Z,17.38
2022-09-28T01:36:59.608Z,17.98
2022-09-28T01:39:42.541Z,16.67
2022-09-28T01:42:26.525Z,14.52
2022-09-28T01:45:02.644Z,13.75
2022-09-28T01:47:36.122Z,12.90
2022-09-28T01:50:18.439Z,15.15
2022-09-28T01:52:52.825Z,12.97
2022-09-28T01:55:32.341Z,12.15
2022-09-28T01:58:35.684Z,11.75
2022-09-28T02:01:14.039Z,10.77
2022-09-28T02:03:54.127Z,14.35
2022-09-28T02:06:34.577Z,12.90
2022-09-28T02:09:11.621Z,12.82
2022-09-28T02:11:45.716Z,14.30
2022-09-28T02:14:16.932Z,11.75
2022-09-28T02:16:50.029Z,11.50
2022-09-28T02:19:25.753Z,11.33
2022-09-28T02:22:23.382Z,15.02
2022-09-28T02:25:08.979Z,12.65
2022-09-28T02:28:00.581Z,13.48
2022-09-28T02:30:30.013Z,15.00
2022-09-28T02:33:05.621Z,14.83
2022-09-28T02:35:35.239Z,13.88
2022-09-28T02:38:02.543Z,15.98
2022-09-28T02:40:34.275Z,15.85
2022-09-28T02:43:27.628Z,15.93
2022-09-28T02:46:23.329Z,17.27
2022-09-28T02:49:21.535Z,22.92
2022-09-28T02:52:17.351Z,22.10
2022-09-28T02:55:02.074Z,18.27
2022-09-28T02:57:52.315Z,20.63
2022-09-28T03:00:22.797Z,20.43
2022-09-28T03:03:20.500Z,20.42
2022-09-28T03:06:14.792Z,26.30
2022-09-28T03:08:57.614Z,24.20
2022-09-28T03:11:37.520Z,22.85
2022-09-28T03:14:05.529Z,21.73
2022-09-28T03:16:32.525Z,22.80
2022-09-28T03:18:59.520Z,21.23
2022-09-28T03:21:26.390Z,21.88
2022-09-28T03:23:53.295Z,20.98
2022-09-28T03:26:20.228Z,15.57
2022-09-28T03:28:47.129Z,22.40
2022-09-28T03:31:14.119Z,17.30
2022-09-28T03:33:41.215Z,16.50
2022-09-28T03:36:09.555Z,19.27
2022-09-28T03:38:36.513Z,17.47
2022-09-28T03:41:03.565Z,24.13
2022-09-28T03:43:31.429Z,17.13
2022-09-28T03:46:01.620Z,17.45
2022-09-28T03:48:35.014Z,17.02
2022-09-28T03:51:09.111Z,18.13
2022-09-28T03:53:36.969Z,15.18
2022-09-28T03:56:22.023Z,15.10
2022-09-28T03:58:49.240Z,12.80
2022-09-28T04:01:17.727Z,16.02
2022-09-28T04:03:45.759Z,12.40
2022-09-28T04:06:12.981Z,12.50
2022-09-28T04:08:40.257Z,14.90
2022-09-28T04:11:07.320Z,13.00
2022-09-28T04:13:34.387Z,13.35
2022-09-28T04:16:02.094Z,13.43
2022-09-28T04:18:29.690Z,9.65
2022-09-28T04:21:10.025Z,10.13
2022-09-28T04:23:39.610Z,11.23
2022-09-28T04:26:13.168Z,9.95
2022-09-28T04:29:02.728Z,9.97
2022-09-28T04:31:40.206Z,8.93
2022-09-28T04:34:07.480Z,10.68
2022-09-28T04:36:34.490Z,14.68
2022-09-28T04:39:01.623Z,10.48
2022-09-28T04:41:28.580Z,11.00
2022-09-28T04:43:55.492Z,9.73
2022-09-28T04:46:22.407Z,10.68
2022-09-28T04:48:50.210Z,9.80
2022-09-28T04:51:17.163Z,10.80
2022-09-28T04:53:44.093Z,9.10
2022-09-28T04:56:13.695Z,11.57
2022-09-28T04:58:41.906Z,11.85
2022-09-28T05:01:13.412Z,9.57
2022-09-28T05:03:40.684Z,12.25
2022-09-28T05:06:07.882Z,9.20
2022-09-28T05:08:35.391Z,11.82
2022-09-28T05:11:05.969Z,8.85
2022-09-28T05:13:41.549Z,8.48
2022-09-28T05:16:10.131Z,8.00
2022-09-28T05:18:37.234Z,8.97
2022-09-28T05:21:09.171Z,11.00
2022-09-28T05:23:36.055Z,9.70
2022-09-28T05:26:03.397Z,10.48
2022-09-28T05:28:32.995Z,9.00
2022-09-28T05:31:04.477Z,8.70
2022-09-28T05:33:33.024Z,9.48
2022-09-28T05:36:01.505Z,8.25
2022-09-28T05:38:29.959Z,9.82
2022-09-28T05:40:57.336Z,8.88
2022-09-28T05:43:24.561Z,6.47
2022-09-28T05:45:55.403Z,7.72
2022-09-28T05:48:23.512Z,10.25
2022-09-28T05:50:53.577Z,9.55
2022-09-28T05:53:20.973Z,8.23
2022-09-28T05:55:48.022Z,15.17
2022-09-28T05:58:15.367Z,7.63
2022-09-28T06:00:42.964Z,9.05
2022-09-28T06:03:14.689Z,8.90
2022-09-28T06:05:42.180Z,8.57
2022-09-28T06:08:10.677Z,7.37
2022-09-28T06:10:38.188Z,7.22
2022-09-28T06:13:06.388Z,7.47
2022-09-28T06:15:35.622Z,9.18
2022-09-28T06:18:14.072Z,7.90
2022-09-28T06:20:41.919Z,6.80
2022-09-28T06:23:14.015Z,8.32
2022-09-28T06:25:41.218Z,9.90
2022-09-28T06:28:12.365Z,7.30
2022-09-28T06:30:40.893Z,10.60
2022-09-28T06:33:12.975Z,7.93
2022-09-28T06:35:40.698Z,8.25
2022-09-28T06:38:07.818Z,10.70
2022-09-28T06:40:35.675Z,8.00
2022-09-28T06:43:11.542Z,11.05
2022-09-28T06:45:39.339Z,10.70
2022-09-28T06:48:08.656Z,13.52
2022-09-28T06:50:41.468Z,10.50
2022-09-28T06:53:13.546Z,13.38
2022-09-28T06:55:48.186Z,8.20
2022-09-28T06:58:19.480Z,10.87
2022-09-28T07:00:47.965Z,14.50
2022-09-28T07:03:18.976Z,15.50
2022-09-28T07:05:49.443Z,9.27
2022-09-28T07:08:17.662Z,10.50
2022-09-28T07:10:47.395Z,13.80
2022-09-28T07:13:40.790Z,12.63
2022-09-28T07:16:03.211Z,11.93
2022-09-28T07:18:30.219Z,14.13
2022-09-28T07:20:57.449Z,13.23
2022-09-28T07:23:29.752Z,12.80
2022-09-28T07:25:58.194Z,12.30
2022-09-28T07:28:25.383Z,11.85
2022-09-28T07:30:52.363Z,13.27
2022-09-28T07:33:19.345Z,12.02
2022-09-28T07:35:55.251Z,9.57
2022-09-28T07:38:22.832Z,14.82
2022-09-28T07:41:08.876Z,11.85
2022-09-28T07:43:35.808Z,9.77
2022-09-28T07:46:02.791Z,11.18
2022-09-28T07:48:37.660Z,9.43
2022-09-28T07:51:05.782Z,11.00
2022-09-28T07:53:33.207Z,10.40
2022-09-28T07:56:06.901Z,7.93
2022-09-28T07:58:36.689Z,19.60
2022-09-28T08:01:10.466Z,11.57
2022-09-28T08:03:38.724Z,16.90
2022-09-28T08:06:11.020Z,9.93
2022-09-28T08:08:44.546Z,10.77
2022-09-28T08:11:14.289Z,11.98
2022-09-28T08:13:41.564Z,9.33
2022-09-28T08:16:08.713Z,11.77
2022-09-28T08:18:36.576Z,12.45
2022-09-28T08:21:24.145Z,10.73
2022-09-28T08:23:52.808Z,11.57
2022-09-28T08:26:19.791Z,11.80
2022-09-28T08:28:47.663Z,15.57
2022-09-28T08:31:14.866Z,11.05
2022-09-28T08:33:42.044Z,13.88
2022-09-28T08:36:10.320Z,7.90
2022-09-28T08:38:37.211Z,11.37
2022-09-28T08:41:22.011Z,11.13
2022-09-28T08:43:57.900Z,7.22
2022-09-28T08:46:34.095Z,9.25
2022-09-28T08:49:42.772Z,8.80
2022-09-28T08:52:20.555Z,8.23
2022-09-28T08:55:15.546Z,7.40
2022-09-28T08:57:55.135Z,8.15
2022-09-28T09:00:36.682Z,8.75
2022-09-28T09:03:07.434Z,5.95
2022-09-28T09:05:53.859Z,5.73
2022-09-28T09:08:32.707Z,5.22
2022-09-28T09:11:07.466Z,7.45
2022-09-28T09:13:51.655Z,4.50
2022-09-28T09:16:44.407Z,6.85
2022-09-28T09:19:14.074Z,4.77
2022-09-28T09:21:51.012Z,4.20
2022-09-28T09:24:27.252Z,5.70
2022-09-28T09:27:28.584Z,3.40
2022-09-28T09:30:20.468Z,5.60
2022-09-28T09:33:24.151Z,2.37
2022-09-28T09:36:11.941Z,3.95
2022-09-28T09:39:17.275Z,5.03
2022-09-28T09:42:05.892Z,5.93
2022-09-28T09:44:33.452Z,4.82
2022-09-28T09:47:07.954Z,4.77
2022-09-28T09:49:57.104Z,4.78
2022-09-28T09:52:49.376Z,3.58
2022-09-28T09:55:32.922Z,4.30
2022-09-28T09:58:21.630Z,2.42
2022-09-28T10:00:54.638Z,3.40
2022-09-28T10:03:29.052Z,2.78
2022-09-28T10:06:05.805Z,3.80
2022-09-28T10:08:46.263Z,2.97
2022-09-28T10:11:41.781Z,1.77
2022-09-28T10:14:17.178Z,1.90
2022-09-28T10:16:48.480Z,2.47
2022-09-28T10:19:19.663Z,2.20
2022-09-28T10:21:52.939Z,3.38
2022-09-28T10:24:30.319Z,4.28
2022-09-28T10:27:07.965Z,2.47
2022-09-28T10:29:52.776Z,3.65
2022-09-28T10:32:26.363Z,2.85
2022-09-28T10:35:11.036Z,4.00
2022-09-28T10:37:56.347Z,1.67
2022-09-28T10:40:43.308Z,2.03
2022-09-28T10:43:33.412Z,1.55
2022-09-28T10:46:11.055Z,6.20
2022-09-28T10:48:56.348Z,2.28
2022-09-28T10:51:49.476Z,2.03
2022-09-28T10:54:23.408Z,1.73
2022-09-28T10:56:51.638Z,1.50
2022-09-28T10:59:38.670Z,2.53
2022-09-28T11:02:24.161Z,2.95
2022-09-28T11:04:58.457Z,2.03
2022-09-28T11:07:32.144Z,4.50
2022-09-28T11:10:01.052Z,1.75
2022-09-28T11:12:43.107Z,3.30
2022-09-28T11:15:24.864Z,5.43
2022-09-28T11:17:52.371Z,3.08
2022-09-28T11:20:27.914Z,3.00
2022-09-28T11:22:58.577Z,1.60
2022-09-28T11:25:28.733Z,2.63
2022-09-28T11:27:56.650Z,2.53
2022-09-28T11:30:43.216Z,1.92
2022-09-28T11:33:20.445Z,2.00
2022-09-28T11:36:01.752Z,2.47
2022-09-28T11:38:41.161Z,4.72
2022-09-28T11:41:27.775Z,2.45
2022-09-28T11:44:33.301Z,2.10
2022-09-28T11:47:27.388Z,3.10
2022-09-28T11:50:23.766Z,3.60
2022-09-28T11:53:33.697Z,2.97
2022-09-28T11:56:15.955Z,1.10
2022-09-28T11:58:50.999Z,2.65
2022-09-28T12:01:50.126Z,2.57
2022-09-28T12:04:52.809Z,2.67
2022-09-28T12:07:48.152Z,1.75
2022-09-28T12:10:25.936Z,3.85
2022-09-28T12:13:06.766Z,2.95
2022-09-28T12:16:38.418Z,1.67
2022-09-28T12:19:25.087Z,1.55
2022-09-28T12:21:59.733Z,2.28
2022-09-28T12:24:59.231Z,3.60
2022-09-28T12:27:50.839Z,4.00
2022-09-28T12:30:20.555Z,4.83
2022-09-28T12:33:15.303Z,3.70
2022-09-28T12:36:41.546Z,2.25
2022-09-28T12:39:56.955Z,4.80
2022-09-28T12:43:19.167Z,5.53
2022-09-28T12:46:11.893Z,7.90
2022-09-28T12:52:46.087Z,5.75
2022-09-28T12:55:18.931Z,6.75
2022-09-28T12:58:21.641Z,3.75
2022-09-28T13:01:31.260Z,3.90
2022-09-28T13:04:44.237Z,3.70
2022-09-28T13:07:32.688Z,4.68
2022-09-28T13:10:26.636Z,4.30
2022-09-28T13:13:31.388Z,5.43
2022-09-28T13:16:36.015Z,3.67
2022-09-28T13:19:24.087Z,4.28
2022-09-28T13:22:20.247Z,4.65
2022-09-28T13:24:47.836Z,7.22
2022-09-28T13:27:41.096Z,6.25
2022-09-28T13:30:12.286Z,3.43
2022-09-28T13:32:40.260Z,4.95
2022-09-28T13:35:11.953Z,4.68
2022-09-28T13:37:38.843Z,6.57
2022-09-28T13:40:06.450Z,4.60
2022-09-28T13:42:45.653Z,3.83
2022-09-28T13:45:21.419Z,5.78
2022-09-28T13:48:20.445Z,2.85
2022-09-28T13:51:32.139Z,5.07
2022-09-28T13:54:50.423Z,5.20
2022-09-28T13:57:31.645Z,3.03
2022-09-28T14:00:30.686Z,3.92
2022-09-28T14:03:46.007Z,3.05
2022-09-28T14:06:25.441Z,3.28
2022-09-28T14:09:13.662Z,2.17
2022-09-28T14:11:56.652Z,2.70
2022-09-28T14:14:30.507Z,2.00
2022-09-28T14:17:25.761Z,2.35
2022-09-28T14:20:00.832Z,2.33
2022-09-28T14:22:54.543Z,4.25
2022-09-28T14:25:28.136Z,1.47
2022-09-28T14:28:30.094Z,1.98
2022-09-28T14:30:58.146Z,2.35
2022-09-28T14:33:29.406Z,1.73
2022-09-28T14:36:05.251Z,3.58
2022-09-28T14:39:04.469Z,1.93
2022-09-28T14:41:39.641Z,2.03
2022-09-28T14:44:13.457Z,2.85
2022-09-28T14:46:48.175Z,3.15
2022-09-28T14:49:19.052Z,2.28
2022-09-28T14:51:55.761Z,2.27
2022-09-28T14:54:47.094Z,2.30
2022-09-28T14:57:21.614Z,2.53
2022-09-28T14:59:49.049Z,3.42
2022-09-28T15:02:31.599Z,2.90
2022-09-28T15:05:24.784Z,2.93
2022-09-28T15:07:54.231Z,4.40
2022-09-28T15:10:49.280Z,3.58
2022-09-28T15:13:27.960Z,3.72
2022-09-28T15:16:05.485Z,4.75
2022-09-28T15:19:03.117Z,1.90
2022-09-28T15:21:38.897Z,5.18
2022-09-28T15:25:02.386Z,3.05
2022-09-28T15:27:38.644Z,5.38
2022-09-28T15:30:32.193Z,3.45
2022-09-28T15:33:22.036Z,3.60
2022-09-28T15:36:04.625Z,4.18
2022-09-28T15:38:33.161Z,2.65
2022-09-28T15:41:05.957Z,3.22
2022-09-28T15:43:37.059Z,5.22
2022-09-28T15:46:18.501Z,4.07
2022-09-28T15:48:51.565Z,4.03
2022-09-28T15:51:21.984Z,2.10
2022-09-28T15:54:00.898Z,2.85
2022-09-28T15:56:29.579Z,2.40
2022-09-28T15:59:38.043Z,3.70
2022-09-28T16:02:23.070Z,3.60
2022-09-28T16:04:54.093Z,4.28
2022-09-28T16:07:28.119Z,4.28
2022-09-28T16:10:14.382Z,3.00
2022-09-28T16:12:58.642Z,2.30
2022-09-28T16:15:31.320Z,2.60
2022-09-28T16:18:21.958Z,4.32
2022-09-28T16:20:52.863Z,4.07
2022-09-28T16:23:29.960Z,3.75
2022-09-28T16:26:11.905Z,7.23
2022-09-28T16:28:38.886Z,1.83
2022-09-28T16:31:13.961Z,3.25
2022-09-28T16:33:58.127Z,1.98
2022-09-28T16:36:29.879Z,3.30
2022-09-28T16:38:57.198Z,1.73
2022-09-28T16:41:28.776Z,2.28
2022-09-28T16:44:00.925Z,2.40
2022-09-28T16:46:37.316Z,2.30
2022-09-28T16:49:06.785Z,2.35
2022-09-28T16:51:33.891Z,2.37
2022-09-28T16:54:36.666Z,1.75
2022-09-28T16:57:06.075Z,2.33
2022-09-28T16:59:34.371Z,3.75
2022-09-28T17:02:01.439Z,4.07
2022-09-28T17:04:28.474Z,2.63
2022-09-28T17:06:56.360Z,2.95
2022-09-28T17:09:23.868Z,4.53
2022-09-28T17:11:56.913Z,3.35
2022-09-28T17:14:24.702Z,3.28
2022-09-28T17:17:12.731Z,2.40
2022-09-28T17:19:40.944Z,2.20
2022-09-28T17:22:09.482Z,2.75
2022-09-28T17:24:36.920Z,3.13
2022-09-28T17:27:06.744Z,3.67
2022-09-28T17:29:33.655Z,3.93
2022-09-28T17:32:00.652Z,3.65
2022-09-28T17:34:27.544Z,3.78
2022-09-28T17:36:54.663Z,4.88
2022-09-28T17:39:23.396Z,4.50
2022-09-28T17:41:50.330Z,5.10
2022-09-28T17:44:17.869Z,5.10
2022-09-28T17:46:48.969Z,6.05
2022-09-28T17:49:16.748Z,6.30
2022-09-28T17:51:43.690Z,7.05
2022-09-28T17:54:12.785Z,7.57
2022-09-28T17:56:40.060Z,6.55
2022-09-28T17:59:12.380Z,6.00
2022-09-28T18:01:40.752Z,6.95
2022-09-28T18:04:19.175Z,7.13
2022-09-28T18:06:54.917Z,6.20
2022-09-28T18:09:25.201Z,6.68
2022-09-28T18:12:03.167Z,8.10
2022-09-28T18:14:30.372Z,7.93
2022-09-28T18:16:57.402Z,7.75
2022-09-28T18:19:27.449Z,8.10
2022-09-28T18:21:58.505Z,8.95
2022-09-28T18:24:25.538Z,9.80
2022-09-28T18:26:52.447Z,9.68
2022-09-28T18:29:19.401Z,11.85
2022-09-28T18:31:47.414Z,11.67
2022-09-28T18:34:14.462Z,9.18
2022-09-28T18:36:41.465Z,10.65
2022-09-28T18:39:08.437Z,11.38
2022-09-28T18:41:35.552Z,15.02
2022-09-28T18:44:02.486Z,13.23
2022-09-28T18:46:34.530Z,12.40
2022-09-28T18:49:01.652Z,13.35
2022-09-28T18:51:28.791Z,12.25
2022-09-28T18:53:55.873Z,13.45
2022-09-28T18:56:23.224Z,13.03
2022-09-28T18:58:51.518Z,14.63
2022-09-28T19:01:36.045Z,14.45
2022-09-28T19:04:08.430Z,13.85
2022-09-28T19:06:42.786Z,14.98
2022-09-28T19:09:10.129Z,13.00
2022-09-28T19:11:37.353Z,12.55
2022-09-28T19:14:04.287Z,13.32
2022-09-28T19:16:33.963Z,18.45
2022-09-28T19:19:02.588Z,21.80
2022-09-28T19:21:31.408Z,23.13
2022-09-28T19:24:02.269Z,21.27
2022-09-28T19:26:30.268Z,18.83
2022-09-28T19:28:58.408Z,19.92
2022-09-28T19:31:26.957Z,18.73
2022-09-28T19:33:53.835Z,16.87
2022-09-28T19:36:23.878Z,18.20
2022-09-28T19:38:53.022Z,17.40
2022-09-28T19:41:43.427Z,13.13
2022-09-28T19:44:27.211Z,15.13
2022-09-28T19:47:04.126Z,14.60
2022-09-28T19:49:36.667Z,12.65
2022-09-28T19:52:15.915Z,14.98
2022-09-28T19:54:59.084Z,13.77
2022-09-28T19:57:32.124Z,11.82
2022-09-28T20:00:02.743Z,11.80
2022-09-28T20:02:30.340Z,10.23
2022-09-28T20:04:57.309Z,14.48
2022-09-28T20:07:24.288Z,14.82
2022-09-28T20:09:51.694Z,11.38
2022-09-28T20:12:18.796Z,10.90
2022-09-28T20:14:45.673Z,15.85
2022-09-28T20:17:12.766Z,17.63
2022-09-28T20:19:39.675Z,12.32
2022-09-28T20:22:06.633Z,9.18
2022-09-28T20:24:33.760Z,15.53
2022-09-28T20:27:01.229Z,11.35
2022-09-28T20:29:28.583Z,13.43
2022-09-28T20:31:55.600Z,11.40
2022-09-28T20:34:22.509Z,11.10
2022-09-28T20:36:49.814Z,12.40
2022-09-28T20:39:16.797Z,13.02
2022-09-28T20:41:45.905Z,13.40
2022-09-28T20:44:12.783Z,11.25
2022-09-28T20:46:39.704Z,15.50
2022-09-28T20:49:07.599Z,10.97
2022-09-28T20:51:34.567Z,14.32
2022-09-28T20:54:01.764Z,11.85
2022-09-28T20:56:37.450Z,11.75
2022-09-28T20:59:09.957Z,10.88
2022-09-28T21:01:38.174Z,11.47
2022-09-28T21:04:07.660Z,12.13
2022-09-28T21:06:40.684Z,9.90
2022-09-28T21:09:09.493Z,12.00
2022-09-28T21:11:37.503Z,11.52
2022-09-28T21:14:06.516Z,10.10
2022-09-28T21:16:35.361Z,10.27
2022-09-28T21:19:03.311Z,12.25
2022-09-28T21:21:30.408Z,12.70
2022-09-28T21:23:58.703Z,12.15
2022-09-28T21:26:28.677Z,14.40
2022-09-28T21:28:59.157Z,11.65
2022-09-28T21:31:41.318Z,16.30
2022-09-28T21:34:13.445Z,12.05
2022-09-28T21:36:43.386Z,14.68
2022-09-28T21:39:10.738Z,15.23
2022-09-28T21:41:37.973Z,12.63
2022-09-28T21:44:05.049Z,15.93
2022-09-28T21:46:34.311Z,13.38
2022-09-28T21:49:06.315Z,13.63
2022-09-28T21:51:34.396Z,12.10
2022-09-28T21:54:01.329Z,11.77
2022-09-28T21:56:28.544Z,13.88
2022-09-28T21:58:55.543Z,15.30
2022-09-28T22:01:25.451Z,12.63
2022-09-28T22:03:55.832Z,12.10
2022-09-28T22:06:27.816Z,16.88
2022-09-28T22:08:54.820Z,14.20
2022-09-28T22:11:25.102Z,14.52
2022-09-28T22:13:55.972Z,14.48
2022-09-28T22:16:26.339Z,11.60
2022-09-28T22:18:53.420Z,12.18
2022-09-28T22:21:34.788Z,13.27
2022-09-28T22:24:05.375Z,15.25
2022-09-28T22:26:34.446Z,12.88
2022-09-28T22:29:05.580Z,13.77
2022-09-28T22:31:36.432Z,14.57
2022-09-28T22:34:04.301Z,15.75
2022-09-28T22:36:31.763Z,14.18
2022-09-28T22:38:59.672Z,14.18
2022-09-28T22:41:27.064Z,15.40
2022-09-28T22:43:54.994Z,12.00
2022-09-28T22:46:28.395Z,15.32
2022-09-28T22:48:58.064Z,15.20
2022-09-28T22:51:27.394Z,13.38
2022-09-28T22:53:54.381Z,12.93
2022-09-28T22:56:21.392Z,11.82
2022-09-28T22:58:48.776Z,12.77
2022-09-28T23:01:22.400Z,12.75
2022-09-28T23:03:50.925Z,15.13
2022-09-28T23:06:21.003Z,12.23
2022-09-28T23:08:49.698Z,11.95
2022-09-28T23:11:17.662Z,11.43
2022-09-28T23:13:52.212Z,12.00
2022-09-28T23:16:20.038Z,13.57
2022-09-28T23:18:49.014Z,13.10
2022-09-28T23:21:21.156Z,12.32
2022-09-28T23:24:01.389Z,13.60
2022-09-28T23:26:34.290Z,12.52
2022-09-28T23:29:01.286Z,16.10
2022-09-28T23:31:31.397Z,12.47
2022-09-28T23:34:04.235Z,11.55
2022-09-28T23:36:32.658Z,11.13
2022-09-28T23:38:59.659Z,13.63
2022-09-28T23:41:26.948Z,11.50
2022-09-28T23:43:54.228Z,14.27
2022-09-28T23:46:21.524Z,12.07
2022-09-28T23:48:49.536Z,11.90
2022-09-28T23:51:16.788Z,13.65
2022-09-28T23:53:43.765Z,12.35
2022-09-28T23:56:11.040Z,13.87
2022-09-28T23:58:38.042Z,11.38
